sensor_id;sensor_type;location;lat;lon;timestamp;pressure;altitude;pressure_sealevel;temperature;humidity
61408;BME280;47274;43.054;25.146;2024-03-06T00:01:03;95341.94;;;4.74;100.00
61408;BME280;47274;43.054;25.146;2024-03-06T00:03:29;95327.50;;;4.63;100.00
61408;BME280;47274;43.054;25.146;2024-03-06T00:05:54;95330.75;;;4.65;100.00
61408;BME280;47274;43.054;25.146;2024-03-06T00:08:20;95336.88;;;4.74;100.00
61408;BME280;47274;43.054;25.146;2024-03-06T00:10:46;95305.88;;;4.58;100.00
61408;BME280;47274;43.054;25.146;2024-03-06T00:13:12;95345.28;;;4.74;100.00
61408;BME280;47274;43.054;25.146;2024-03-06T00:15:38;95347.75;;;4.76;100.00
61408;BME280;47274;43.054;25.146;2024-03-06T00:18:04;95343.22;;;4.80;100.00
61408;BME280;47274;43.054;25.146;2024-03-06T00:20:31;95324.59;;;4.68;100.00
61408;BME280;47274;43.054;25.146;2024-03-06T00:22:57;95341.00;;;4.75;100.00
61408;BME280;47274;43.054;25.146;2024-03-06T00:25:25;95334.09;;;4.66;100.00
61408;BME280;47274;43.054;25.146;2024-03-06T00:27:50;95300.09;;;4.44;100.00
61408;BME280;47274;43.054;25.146;2024-03-06T00:30:16;95357.56;;;4.81;100.00
61408;BME280;47274;43.054;25.146;2024-03-06T00:32:42;95348.53;;;4.77;100.00
61408;BME280;47274;43.054;25.146;2024-03-06T00:35:08;95324.16;;;4.63;100.00
61408;BME280;47274;43.054;25.146;2024-03-06T00:37:33;95333.06;;;4.68;100.00
61408;BME280;47274;43.054;25.146;2024-03-06T00:39:59;95314.66;;;4.54;100.00
61408;BME280;47274;43.054;25.146;2024-03-06T00:42:25;95342.41;;;4.68;100.00
61408;BME280;47274;43.054;25.146;2024-03-06T00:44:51;95299.28;;;4.33;100.00
61408;BME280;47274;43.054;25.146;2024-03-06T00:47:16;95308.44;;;4.46;100.00
61408;BME280;47274;43.054;25.146;2024-03-06T00:49:42;95360.00;;;4.82;100.00
61408;BME280;47274;43.054;25.146;2024-03-06T00:52:08;95338.94;;;4.69;100.00
61408;BME280;47274;43.054;25.146;2024-03-06T00:54:35;95329.34;;;4.61;100.00
61408;BME280;47274;43.054;25.146;2024-03-06T00:57:01;95339.84;;;4.68;100.00
61408;BME280;47274;43.054;25.146;2024-03-06T00:59:27;95343.56;;;4.75;100.00
61408;BME280;47274;43.054;25.146;2024-03-06T01:01:53;95346.81;;;4.77;100.00
61408;BME280;47274;43.054;25.146;2024-03-06T01:04:22;95347.25;;;4.71;100.00
61408;BME280;47274;43.054;25.146;2024-03-06T01:06:48;95360.00;;;4.82;100.00
61408;BME280;47274;43.054;25.146;2024-03-06T01:09:14;95346.56;;;4.80;100.00
61408;BME280;47274;43.054;25.146;2024-03-06T01:11:39;95356.63;;;4.82;100.00
61408;BME280;47274;43.054;25.146;2024-03-06T01:14:05;95338.03;;;4.70;100.00
61408;BME280;47274;43.054;25.146;2024-03-06T01:16:31;95353.50;;;4.78;100.00
61408;BME280;47274;43.054;25.146;2024-03-06T01:18:56;95351.44;;;4.83;100.00
61408;BME280;47274;43.054;25.146;2024-03-06T01:21:22;95310.16;;;4.57;100.00
61408;BME280;47274;43.054;25.146;2024-03-06T01:23:48;95351.53;;;4.82;100.00
61408;BME280;47274;43.054;25.146;2024-03-06T01:26:13;95354.34;;;4.79;100.00
61408;BME280;47274;43.054;25.146;2024-03-06T01:28:39;95360.44;;;4.76;100.00
61408;BME280;47274;43.054;25.146;2024-03-06T01:31:05;95349.56;;;4.74;100.00
61408;BME280;47274;43.054;25.146;2024-03-06T01:33:32;95337.44;;;4.66;100.00
61408;BME280;47274;43.054;25.146;2024-03-06T01:36:00;95371.06;;;4.81;100.00
61408;BME280;47274;43.054;25.146;2024-03-06T01:38:27;95361.84;;;4.80;100.00
61408;BME280;47274;43.054;25.146;2024-03-06T01:40:52;95352.81;;;4.76;100.00
61408;BME280;47274;43.054;25.146;2024-03-06T01:43:23;95367.94;;;4.89;100.00
61408;BME280;47274;43.054;25.146;2024-03-06T01:45:51;95316.88;;;4.58;100.00
61408;BME280;47274;43.054;25.146;2024-03-06T01:48:21;95358.59;;;4.78;100.00
61408;BME280;47274;43.054;25.146;2024-03-06T01:50:48;95367.84;;;4.79;100.00
61408;BME280;47274;43.054;25.146;2024-03-06T01:53:15;95378.34;;;4.74;100.00
61408;BME280;47274;43.054;25.146;2024-03-06T01:55:42;95376.84;;;4.83;100.00
61408;BME280;47274;43.054;25.146;2024-03-06T01:58:08;95371.88;;;4.82;100.00
61408;BME280;47274;43.054;25.146;2024-03-06T02:00:34;95366.34;;;4.77;100.00
61408;BME280;47274;43.054;25.146;2024-03-06T02:03:01;95370.50;;;4.78;100.00
61408;BME280;47274;43.054;25.146;2024-03-06T02:05:28;95389.91;;;4.90;100.00
61408;BME280;47274;43.054;25.146;2024-03-06T02:07:57;95362.19;;;4.75;100.00
61408;BME280;47274;43.054;25.146;2024-03-06T02:10:25;95359.97;;;4.71;100.00
61408;BME280;47274;43.054;25.146;2024-03-06T02:12:52;95321.47;;;4.42;100.00
61408;BME280;47274;43.054;25.146;2024-03-06T02:15:18;95337.09;;;4.48;100.00
61408;BME280;47274;43.054;25.146;2024-03-06T02:17:44;95362.03;;;4.55;100.00
61408;BME280;47274;43.054;25.146;2024-03-06T02:20:11;95340.66;;;4.35;100.00
61408;BME280;47274;43.054;25.146;2024-03-06T02:22:41;95401.34;;;4.73;100.00
61408;BME280;47274;43.054;25.146;2024-03-06T02:25:07;95340.44;;;4.38;100.00
61408;BME280;47274;43.054;25.146;2024-03-06T02:27:33;95332.22;;;4.34;100.00
61408;BME280;47274;43.054;25.146;2024-03-06T02:29:59;95377.63;;;4.61;100.00
61408;BME280;47274;43.054;25.146;2024-03-06T02:32:24;95391.41;;;4.70;100.00
61408;BME280;47274;43.054;25.146;2024-03-06T02:34:51;95405.06;;;4.80;100.00
61408;BME280;47274;43.054;25.146;2024-03-06T02:37:16;95382.63;;;4.63;100.00
61408;BME280;47274;43.054;25.146;2024-03-06T02:39:43;95380.28;;;4.60;100.00
61408;BME280;47274;43.054;25.146;2024-03-06T02:42:09;95412.91;;;4.77;100.00
61408;BME280;47274;43.054;25.146;2024-03-06T02:44:35;95380.28;;;4.60;100.00
61408;BME280;47274;43.054;25.146;2024-03-06T02:47:00;95399.38;;;4.65;100.00
61408;BME280;47274;43.054;25.146;2024-03-06T02:49:26;95399.59;;;4.62;100.00
61408;BME280;47274;43.054;25.146;2024-03-06T02:51:52;95396.94;;;4.64;100.00
61408;BME280;47274;43.054;25.146;2024-03-06T02:54:17;95363.28;;;4.38;100.00
61408;BME280;47274;43.054;25.146;2024-03-06T02:56:43;95412.53;;;4.70;100.00
61408;BME280;47274;43.054;25.146;2024-03-06T02:59:09;95417.03;;;4.67;100.00
61408;BME280;47274;43.054;25.146;2024-03-06T03:01:34;95409.19;;;4.59;100.00
61408;BME280;47274;43.054;25.146;2024-03-06T03:04:00;95400.41;;;4.63;100.00
61408;BME280;47274;43.054;25.146;2024-03-06T03:06:26;95406.41;;;4.62;100.00
61408;BME280;47274;43.054;25.146;2024-03-06T03:08:51;95371.13;;;4.35;100.00
61408;BME280;47274;43.054;25.146;2024-03-06T03:11:17;95404.91;;;4.59;100.00
61408;BME280;47274;43.054;25.146;2024-03-06T03:13:43;95400.75;;;4.58;100.00
61408;BME280;47274;43.054;25.146;2024-03-06T03:16:16;95403.03;;;4.61;100.00
61408;BME280;47274;43.054;25.146;2024-03-06T03:18:43;95415.22;;;4.69;100.00
61408;BME280;47274;43.054;25.146;2024-03-06T03:21:09;95380.06;;;4.51;100.00
61408;BME280;47274;43.054;25.146;2024-03-06T03:23:38;95407.22;;;4.73;100.00
61408;BME280;47274;43.054;25.146;2024-03-06T03:26:05;95404.09;;;4.70;100.00
61408;BME280;47274;43.054;25.146;2024-03-06T03:28:32;95401.34;;;4.62;100.00
61408;BME280;47274;43.054;25.146;2024-03-06T03:30:58;95405.47;;;4.63;100.00
61408;BME280;47274;43.054;25.146;2024-03-06T03:33:24;95406.78;;;4.68;100.00
61408;BME280;47274;43.054;25.146;2024-03-06T03:35:50;95410.34;;;4.66;100.00
61408;BME280;47274;43.054;25.146;2024-03-06T03:38:16;95404.78;;;4.61;100.00
61408;BME280;47274;43.054;25.146;2024-03-06T03:40:42;95394.16;;;4.56;100.00
61408;BME280;47274;43.054;25.146;2024-03-06T03:43:08;95403.28;;;4.58;100.00
61408;BME280;47274;43.054;25.146;2024-03-06T03:45:34;95400.63;;;4.60;100.00
61408;BME280;47274;43.054;25.146;2024-03-06T03:48:02;95412.97;;;4.64;100.00
61408;BME280;47274;43.054;25.146;2024-03-06T03:50:30;95399.47;;;4.53;100.00
61408;BME280;47274;43.054;25.146;2024-03-06T03:52:57;95418.28;;;4.61;100.00
61408;BME280;47274;43.054;25.146;2024-03-06T03:55:27;95428.38;;;4.74;100.00
61408;BME280;47274;43.054;25.146;2024-03-06T03:57:53;95421.41;;;4.65;100.00
61408;BME280;47274;43.054;25.146;2024-03-06T04:00:19;95421.19;;;4.68;100.00
61408;BME280;47274;43.054;25.146;2024-03-06T04:02:45;95428.13;;;4.66;100.00
61408;BME280;47274;43.054;25.146;2024-03-06T04:05:10;95445.50;;;4.72;100.00
61408;BME280;47274;43.054;25.146;2024-03-06T04:07:36;95432.88;;;4.70;100.00
61408;BME280;47274;43.054;25.146;2024-03-06T04:10:03;95427.69;;;4.72;100.00
61408;BME280;47274;43.054;25.146;2024-03-06T04:12:29;95438.31;;;4.77;100.00
61408;BME280;47274;43.054;25.146;2024-03-06T04:14:55;95436.25;;;4.82;100.00
61408;BME280;47274;43.054;25.146;2024-03-06T04:17:20;95419.94;;;4.62;100.00
61408;BME280;47274;43.054;25.146;2024-03-06T04:19:46;95429.53;;;4.70;100.00
61408;BME280;47274;43.054;25.146;2024-03-06T04:22:14;95447.47;;;4.80;100.00
61408;BME280;47274;43.054;25.146;2024-03-06T04:24:43;95420.59;;;4.64;100.00
61408;BME280;47274;43.054;25.146;2024-03-06T04:27:09;95420.28;;;4.69;100.00
61408;BME280;47274;43.054;25.146;2024-03-06T04:29:34;95394.47;;;4.51;100.00
61408;BME280;47274;43.054;25.146;2024-03-06T04:32:00;95389.06;;;4.56;100.00
61408;BME280;47274;43.054;25.146;2024-03-06T04:34:26;95416.94;;;4.68;100.00
61408;BME280;47274;43.054;25.146;2024-03-06T04:36:52;95412.88;;;4.66;100.00
61408;BME280;47274;43.054;25.146;2024-03-06T04:39:17;95421.69;;;4.73;100.00
61408;BME280;47274;43.054;25.146;2024-03-06T04:41:43;95426.75;;;4.73;100.00
61408;BME280;47274;43.054;25.146;2024-03-06T04:44:09;95436.72;;;4.76;100.00
61408;BME280;47274;43.054;25.146;2024-03-06T04:46:34;95419.34;;;4.70;100.00
61408;BME280;47274;43.054;25.146;2024-03-06T04:49:03;95437.88;;;4.83;100.00
61408;BME280;47274;43.054;25.146;2024-03-06T04:51:29;95436.25;;;4.82;100.00
61408;BME280;47274;43.054;25.146;2024-03-06T04:53:55;95438.91;;;4.81;100.00
61408;BME280;47274;43.054;25.146;2024-03-06T04:56:20;95447.56;;;4.78;100.00
61408;BME280;47274;43.054;25.146;2024-03-06T04:58:47;95449.88;;;4.81;100.00
61408;BME280;47274;43.054;25.146;2024-03-06T05:01:13;95425.09;;;4.61;100.00
61408;BME280;47274;43.054;25.146;2024-03-06T05:03:39;95448.03;;;4.72;100.00
61408;BME280;47274;43.054;25.146;2024-03-06T05:06:05;95453.47;;;4.79;100.00
61408;BME280;47274;43.054;25.146;2024-03-06T05:08:31;95448.72;;;4.74;100.00
61408;BME280;47274;43.054;25.146;2024-03-06T05:11:00;95410.06;;;4.46;100.00
61408;BME280;47274;43.054;25.146;2024-03-06T05:13:27;95439.81;;;4.68;100.00
61408;BME280;47274;43.054;25.146;2024-03-06T05:15:52;95451.03;;;4.77;100.00
61408;BME280;47274;43.054;25.146;2024-03-06T05:18:20;95472.75;;;4.81;100.00
61408;BME280;47274;43.054;25.146;2024-03-06T05:20:46;95459.16;;;4.82;100.00
61408;BME280;47274;43.054;25.146;2024-03-06T05:23:12;95443.63;;;4.74;100.00
61408;BME280;47274;43.054;25.146;2024-03-06T05:25:39;95445.72;;;4.69;100.00
61408;BME280;47274;43.054;25.146;2024-03-06T05:28:06;95476.09;;;4.82;100.00
61408;BME280;47274;43.054;25.146;2024-03-06T05:30:31;95460.97;;;4.69;100.00
61408;BME280;47274;43.054;25.146;2024-03-06T05:32:57;95478.56;;;4.83;100.00
61408;BME280;47274;43.054;25.146;2024-03-06T05:35:23;95485.75;;;4.89;100.00
61408;BME280;47274;43.054;25.146;2024-03-06T05:37:48;95435.28;;;4.61;100.00
61408;BME280;47274;43.054;25.146;2024-03-06T05:40:14;95473.03;;;4.89;100.00
61408;BME280;47274;43.054;25.146;2024-03-06T05:42:40;95483.66;;;4.94;100.00
61408;BME280;47274;43.054;25.146;2024-03-06T05:45:06;95484.00;;;4.90;100.00
61408;BME280;47274;43.054;25.146;2024-03-06T05:47:39;95476.94;;;4.82;100.00
61408;BME280;47274;43.054;25.146;2024-03-06T05:50:08;95479.56;;;4.81;100.00
61408;BME280;47274;43.054;25.146;2024-03-06T05:52:36;95498.66;;;4.86;100.00
61408;BME280;47274;43.054;25.146;2024-03-06T05:55:02;95501.91;;;4.88;100.00
61408;BME280;47274;43.054;25.146;2024-03-06T05:57:31;95500.63;;;4.83;100.00
61408;BME280;47274;43.054;25.146;2024-03-06T05:59:57;95495.63;;;4.81;100.00
61408;BME280;47274;43.054;25.146;2024-03-06T06:02:23;95478.63;;;4.70;100.00
61408;BME280;47274;43.054;25.146;2024-03-06T06:04:49;95492.63;;;4.76;100.00
61408;BME280;47274;43.054;25.146;2024-03-06T06:07:14;95520.63;;;4.87;100.00
61408;BME280;47274;43.054;25.146;2024-03-06T06:09:41;95495.97;;;4.77;100.00
61408;BME280;47274;43.054;25.146;2024-03-06T06:12:06;95469.47;;;4.68;100.00
61408;BME280;47274;43.054;25.146;2024-03-06T06:14:32;95506.88;;;4.90;100.00
61408;BME280;47274;43.054;25.146;2024-03-06T06:16:58;95497.50;;;4.79;100.00
61408;BME280;47274;43.054;25.146;2024-03-06T06:19:24;95500.06;;;4.90;100.00
61408;BME280;47274;43.054;25.146;2024-03-06T06:21:54;95502.25;;;4.84;100.00
61408;BME280;47274;43.054;25.146;2024-03-06T06:24:19;95491.94;;;4.74;100.00
61408;BME280;47274;43.054;25.146;2024-03-06T06:26:45;95503.84;;;4.85;100.00
61408;BME280;47274;43.054;25.146;2024-03-06T06:29:11;95517.28;;;4.98;100.00
61408;BME280;47274;43.054;25.146;2024-03-06T06:31:37;95517.78;;;5.14;100.00
61408;BME280;47274;43.054;25.146;2024-03-06T06:34:02;95499.84;;;5.05;100.00
61408;BME280;47274;43.054;25.146;2024-03-06T06:36:28;95506.22;;;5.10;100.00
61408;BME280;47274;43.054;25.146;2024-03-06T06:38:55;95519.19;;;5.18;100.00
61408;BME280;47274;43.054;25.146;2024-03-06T06:41:20;95521.41;;;5.23;100.00
61408;BME280;47274;43.054;25.146;2024-03-06T06:43:46;95488.75;;;5.06;100.00
61408;BME280;47274;43.054;25.146;2024-03-06T06:46:12;95497.31;;;5.16;100.00
61408;BME280;47274;43.054;25.146;2024-03-06T06:48:38;95527.19;;;5.36;100.00
61408;BME280;47274;43.054;25.146;2024-03-06T06:51:03;95511.56;;;5.30;100.00
61408;BME280;47274;43.054;25.146;2024-03-06T06:53:30;95542.00;;;5.42;100.00
61408;BME280;47274;43.054;25.146;2024-03-06T06:55:57;95478.13;;;5.01;100.00
61408;BME280;47274;43.054;25.146;2024-03-06T06:58:23;95543.38;;;5.46;100.00
61408;BME280;47274;43.054;25.146;2024-03-06T07:00:48;95501.72;;;5.25;100.00
61408;BME280;47274;43.054;25.146;2024-03-06T07:03:14;95531.38;;;5.49;100.00
61408;BME280;47274;43.054;25.146;2024-03-06T07:05:40;95487.63;;;5.21;100.00
61408;BME280;47274;43.054;25.146;2024-03-06T07:08:08;95485.53;;;5.26;100.00
61408;BME280;47274;43.054;25.146;2024-03-06T07:10:34;95548.28;;;5.61;100.00
61408;BME280;47274;43.054;25.146;2024-03-06T07:13:02;95543.06;;;5.62;100.00
61408;BME280;47274;43.054;25.146;2024-03-06T07:15:28;95540.28;;;5.65;100.00
61408;BME280;47274;43.054;25.146;2024-03-06T07:17:54;95544.78;;;5.73;100.00
61408;BME280;47274;43.054;25.146;2024-03-06T07:20:20;95532.28;;;5.59;100.00
61408;BME280;47274;43.054;25.146;2024-03-06T07:22:45;95559.38;;;5.71;100.00
61408;BME280;47274;43.054;25.146;2024-03-06T07:25:12;95546.88;;;5.68;100.00
61408;BME280;47274;43.054;25.146;2024-03-06T07:27:37;95554.31;;;5.71;100.00
61408;BME280;47274;43.054;25.146;2024-03-06T07:30:03;95555.56;;;5.77;100.00
61408;BME280;47274;43.054;25.146;2024-03-06T07:32:29;95550.81;;;5.72;100.00
61408;BME280;47274;43.054;25.146;2024-03-06T07:34:55;95563.19;;;5.77;100.00
61408;BME280;47274;43.054;25.146;2024-03-06T07:37:21;95528.25;;;5.56;100.00
61408;BME280;47274;43.054;25.146;2024-03-06T07:39:46;95522.34;;;5.56;100.00
61408;BME280;47274;43.054;25.146;2024-03-06T07:42:12;95552.56;;;5.72;100.00
61408;BME280;47274;43.054;25.146;2024-03-06T07:44:38;95550.69;;;5.74;100.00
61408;BME280;47274;43.054;25.146;2024-03-06T07:47:04;95559.16;;;5.85;100.00
61408;BME280;47274;43.054;25.146;2024-03-06T07:49:29;95556.84;;;5.82;100.00
61408;BME280;47274;43.054;25.146;2024-03-06T07:51:57;95534.84;;;5.70;100.00
61408;BME280;47274;43.054;25.146;2024-03-06T07:54:23;95549.88;;;5.84;100.00
61408;BME280;47274;43.054;25.146;2024-03-06T07:56:49;95561.13;;;5.93;100.00
61408;BME280;47274;43.054;25.146;2024-03-06T07:59:14;95521.19;;;5.71;100.00
61408;BME280;47274;43.054;25.146;2024-03-06T08:01:42;95526.88;;;5.75;100.00
61408;BME280;47274;43.054;25.146;2024-03-06T08:04:07;95564.84;;;6.00;100.00
61408;BME280;47274;43.054;25.146;2024-03-06T08:06:33;95556.16;;;5.91;100.00
61408;BME280;47274;43.054;25.146;2024-03-06T08:09:00;95527.31;;;5.68;100.00
61408;BME280;47274;43.054;25.146;2024-03-06T08:11:27;95563.19;;;5.77;100.00
61408;BME280;47274;43.054;25.146;2024-03-06T08:13:59;95560.06;;;5.73;100.00
61408;BME280;47274;43.054;25.146;2024-03-06T08:16:25;95570.47;;;5.70;100.00
61408;BME280;47274;43.054;25.146;2024-03-06T08:18:51;95556.81;;;5.37;100.00
61408;BME280;47274;43.054;25.146;2024-03-06T08:21:16;95561.53;;;5.31;100.00
61408;BME280;47274;43.054;25.146;2024-03-06T08:23:42;95580.31;;;5.41;100.00
61408;BME280;47274;43.054;25.146;2024-03-06T08:26:08;95565.16;;;5.51;100.00
61408;BME280;47274;43.054;25.146;2024-03-06T08:28:34;95569.78;;;5.57;100.00
61408;BME280;47274;43.054;25.146;2024-03-06T08:31:00;95578.81;;;5.72;100.00
61408;BME280;47274;43.054;25.146;2024-03-06T08:33:25;95576.28;;;5.61;100.00
61408;BME280;47274;43.054;25.146;2024-03-06T08:35:51;95561.22;;;5.58;100.00
61408;BME280;47274;43.054;25.146;2024-03-06T08:38:17;95546.41;;;5.63;100.00
61408;BME280;47274;43.054;25.146;2024-03-06T08:40:43;95562.63;;;5.62;100.00
61408;BME280;47274;43.054;25.146;2024-03-06T08:43:12;95565.28;;;5.83;100.00
61408;BME280;47274;43.054;25.146;2024-03-06T08:45:41;95586.72;;;6.14;100.00
61408;BME280;47274;43.054;25.146;2024-03-06T08:48:07;95572.25;;;6.03;100.00
61408;BME280;47274;43.054;25.146;2024-03-06T08:50:33;95589.38;;;6.12;100.00
61408;BME280;47274;43.054;25.146;2024-03-06T08:52:59;95587.41;;;6.16;100.00
61408;BME280;47274;43.054;25.146;2024-03-06T08:55:24;95568.78;;;6.15;100.00
61408;BME280;47274;43.054;25.146;2024-03-06T08:57:50;95576.69;;;6.45;100.00
61408;BME280;47274;43.054;25.146;2024-03-06T09:00:18;95579.72;;;6.50;100.00
61408;BME280;47274;43.054;25.146;2024-03-06T09:02:43;95589.72;;;6.74;100.00
61408;BME280;47274;43.054;25.146;2024-03-06T09:05:10;95593.16;;;6.84;100.00
61408;BME280;47274;43.054;25.146;2024-03-06T09:07:38;95598.66;;;7.00;100.00
61408;BME280;47274;43.054;25.146;2024-03-06T09:10:10;95594.72;;;6.96;100.00
61408;BME280;47274;43.054;25.146;2024-03-06T09:12:36;95604.56;;;7.01;100.00
61408;BME280;47274;43.054;25.146;2024-03-06T09:15:03;95606.81;;;6.94;100.00
61408;BME280;47274;43.054;25.146;2024-03-06T09:17:29;95593.44;;;7.02;100.00
61408;BME280;47274;43.054;25.146;2024-03-06T09:19:55;95604.97;;;7.17;100.00
61408;BME280;47274;43.054;25.146;2024-03-06T09:22:21;95555.56;;;7.18;100.00
61408;BME280;47274;43.054;25.146;2024-03-06T09:24:47;95577.19;;;7.45;100.00
61408;BME280;47274;43.054;25.146;2024-03-06T09:27:14;95578.91;;;7.65;100.00
61408;BME280;47274;43.054;25.146;2024-03-06T09:29:40;95563.19;;;7.60;100.00
61408;BME280;47274;43.054;25.146;2024-03-06T09:32:06;95555.78;;;7.57;100.00
61408;BME280;47274;43.054;25.146;2024-03-06T09:34:32;95568.53;;;7.57;100.00
61408;BME280;47274;43.054;25.146;2024-03-06T09:36:58;95576.94;;;7.48;100.00
61408;BME280;47274;43.054;25.146;2024-03-06T09:39:24;95549.41;;;7.51;100.00
61408;BME280;47274;43.054;25.146;2024-03-06T09:41:50;95605.06;;;8.09;100.00
61408;BME280;47274;43.054;25.146;2024-03-06T09:44:17;95602.78;;;8.46;100.00
61408;BME280;47274;43.054;25.146;2024-03-06T09:46:47;95559.63;;;8.22;100.00
61408;BME280;47274;43.054;25.146;2024-03-06T09:49:17;95607.16;;;8.65;100.00
61408;BME280;47274;43.054;25.146;2024-03-06T09:51:45;95583.81;;;8.49;100.00
61408;BME280;47274;43.054;25.146;2024-03-06T09:54:12;95564.84;;;8.42;100.00
61408;BME280;47274;43.054;25.146;2024-03-06T09:56:47;95601.50;;;8.62;100.00
61408;BME280;47274;43.054;25.146;2024-03-06T09:59:13;95587.72;;;8.53;100.00
61408;BME280;47274;43.054;25.146;2024-03-06T10:01:48;95598.16;;;8.90;100.00
61408;BME280;47274;43.054;25.146;2024-03-06T10:06:47;95588.28;;;9.34;100.00
61408;BME280;47274;43.054;25.146;2024-03-06T10:09:17;95578.59;;;9.38;100.00
61408;BME280;47274;43.054;25.146;2024-03-06T10:11:42;95581.16;;;9.38;99.46
61408;BME280;47274;43.054;25.146;2024-03-06T10:14:08;95576.81;;;9.58;100.00
61408;BME280;47274;43.054;25.146;2024-03-06T10:16:36;95580.50;;;9.83;99.46
61408;BME280;47274;43.054;25.146;2024-03-06T10:19:15;95587.97;;;10.04;99.35
61408;BME280;47274;43.054;25.146;2024-03-06T10:21:46;95584.91;;;10.28;98.65
61408;BME280;47274;43.054;25.146;2024-03-06T10:24:18;95549.47;;;10.13;98.08
61408;BME280;47274;43.054;25.146;2024-03-06T10:26:44;95593.28;;;10.30;97.44
61408;BME280;47274;43.054;25.146;2024-03-06T10:29:10;95574.06;;;10.06;97.29
61408;BME280;47274;43.054;25.146;2024-03-06T10:31:36;95574.28;;;9.85;96.25
61408;BME280;47274;43.054;25.146;2024-03-06T10:34:02;95577.66;;;9.86;98.28
61408;BME280;47274;43.054;25.146;2024-03-06T10:36:32;95591.13;;;9.88;97.73
61408;BME280;47274;43.054;25.146;2024-03-06T10:38:59;95585.66;;;9.63;98.82
61408;BME280;47274;43.054;25.146;2024-03-06T10:41:29;95570.88;;;9.47;98.97
61408;BME280;47274;43.054;25.146;2024-03-06T10:43:59;95566.34;;;9.12;99.71
61408;BME280;47274;43.054;25.146;2024-03-06T10:46:27;95572.94;;;9.05;100.00
61408;BME280;47274;43.054;25.146;2024-03-06T10:48:55;95582.00;;;8.99;100.00
61408;BME280;47274;43.054;25.146;2024-03-06T10:51:25;95572.81;;;8.77;100.00
61408;BME280;47274;43.054;25.146;2024-03-06T10:53:51;95562.16;;;8.92;100.00
61408;BME280;47274;43.054;25.146;2024-03-06T10:56:20;95574.56;;;9.16;100.00
61408;BME280;47274;43.054;25.146;2024-03-06T10:58:50;95570.34;;;9.44;99.46
61408;BME280;47274;43.054;25.146;2024-03-06T11:01:19;95577.69;;;10.13;99.24
61408;BME280;47274;43.054;25.146;2024-03-06T11:03:45;95566.75;;;10.39;92.94
61408;BME280;47274;43.054;25.146;2024-03-06T11:06:13;95558.22;;;10.48;93.54
61408;BME280;47274;43.054;25.146;2024-03-06T11:08:39;95508.09;;;10.54;90.97
61408;BME280;47274;43.054;25.146;2024-03-06T11:11:21;95564.75;;;11.32;88.95
61408;BME280;47274;43.054;25.146;2024-03-06T11:13:48;95556.41;;;11.38;88.42
61408;BME280;47274;43.054;25.146;2024-03-06T11:16:14;95569.03;;;11.49;89.35
61408;BME280;47274;43.054;25.146;2024-03-06T11:18:40;95570.59;;;11.24;89.75
61408;BME280;47274;43.054;25.146;2024-03-06T11:26:47;95556.09;;;11.15;90.40
61408;BME280;47274;43.054;25.146;2024-03-06T11:29:17;95547.59;;;11.14;88.22
61408;BME280;47274;43.054;25.146;2024-03-06T11:32:18;95550.09;;;10.88;88.85
61408;BME280;47274;43.054;25.146;2024-03-06T11:34:43;95546.34;;;10.83;89.93
61408;BME280;47274;43.054;25.146;2024-03-06T11:37:09;95530.94;;;10.83;89.73
61408;BME280;47274;43.054;25.146;2024-03-06T11:39:36;95520.75;;;10.55;90.08
61408;BME280;47274;43.054;25.146;2024-03-06T11:42:03;95536.22;;;10.46;91.26
61408;BME280;47274;43.054;25.146;2024-03-06T11:44:31;95519.44;;;10.24;91.90
61408;BME280;47274;43.054;25.146;2024-03-06T11:47:04;95526.88;;;9.99;92.50
61408;BME280;47274;43.054;25.146;2024-03-06T11:49:32;95514.38;;;9.49;93.24
61408;BME280;47274;43.054;25.146;2024-03-06T11:52:03;95530.03;;;9.46;95.13
61408;BME280;47274;43.054;25.146;2024-03-06T11:54:31;95526.97;;;9.33;95.52
61408;BME280;47274;43.054;25.146;2024-03-06T11:57:02;95481.63;;;8.96;95.37
61408;BME280;47274;43.054;25.146;2024-03-06T11:59:30;95536.28;;;9.24;96.09
61408;BME280;47274;43.054;25.146;2024-03-06T12:01:59;95543.56;;;9.19;96.39
61408;BME280;47274;43.054;25.146;2024-03-06T12:04:27;95534.97;;;9.10;97.57
61408;BME280;47274;43.054;25.146;2024-03-06T12:06:56;95521.47;;;9.08;95.74
61408;BME280;47274;43.054;25.146;2024-03-06T12:09:24;95526.16;;;9.22;93.96
61408;BME280;47274;43.054;25.146;2024-03-06T12:11:50;95512.56;;;9.12;94.14
61408;BME280;47274;43.054;25.146;2024-03-06T12:14:19;95515.13;;;9.12;95.72
61408;BME280;47274;43.054;25.146;2024-03-06T12:19:22;95528.06;;;9.20;96.00
61408;BME280;47274;43.054;25.146;2024-03-06T12:21:48;95534.13;;;9.19;96.90
61408;BME280;47274;43.054;25.146;2024-03-06T12:24:16;95534.53;;;9.24;97.20
61408;BME280;47274;43.054;25.146;2024-03-06T12:26:44;95507.34;;;9.61;96.07
61408;BME280;47274;43.054;25.146;2024-03-06T12:29:17;95520.78;;;10.00;94.34
61408;BME280;47274;43.054;25.146;2024-03-06T12:31:52;95522.56;;;10.27;90.75
61408;BME280;47274;43.054;25.146;2024-03-06T12:34:18;95508.44;;;10.59;91.60
61408;BME280;47274;43.054;25.146;2024-03-06T12:36:44;95514.50;;;11.37;88.87
61408;BME280;47274;43.054;25.146;2024-03-06T12:39:15;95516.91;;;11.13;84.29
61408;BME280;47274;43.054;25.146;2024-03-06T12:41:43;95505.75;;;11.22;87.77
61408;BME280;47274;43.054;25.146;2024-03-06T12:44:09;95517.38;;;11.60;86.31
61408;BME280;47274;43.054;25.146;2024-03-06T12:46:35;95499.94;;;11.46;81.54
61408;BME280;47274;43.054;25.146;2024-03-06T12:49:01;95518.00;;;12.31;83.96
61408;BME280;47274;43.054;25.146;2024-03-06T12:51:27;95506.66;;;12.99;78.79
61408;BME280;47274;43.054;25.146;2024-03-06T12:53:53;95497.56;;;13.60;77.46
61408;BME280;47274;43.054;25.146;2024-03-06T12:56:19;95507.47;;;13.32;75.90
61408;BME280;47274;43.054;25.146;2024-03-06T12:58:45;95510.03;;;13.32;73.48